createdAt,value
2022-11-21T00:00:01.034Z,31.60
2022-11-21T00:06:19.014Z,31.70
2022-11-21T00:12:37.173Z,31.20
2022-11-21T00:18:46.221Z,31.10
2022-11-21T00:25:00.779Z,31.20
2022-11-21T00:31:14.718Z,31.60
2022-11-21T00:37:29.346Z,31.30
2022-11-21T00:43:47.711Z,30.80
2022-11-21T00:50:05.927Z,32.20
2022-11-21T00:56:22.114Z,32.00
2022-11-21T01:02:36.576Z,31.30
2022-11-21T01:08:50.070Z,31.20
2022-11-21T01:15:06.843Z,31.80
2022-11-21T01:21:22.536Z,30.70
2022-11-21T01:27:36.104Z,30.80
2022-11-21T01:33:47.027Z,30.80
2022-11-21T01:40:04.046Z,30.90
2022-11-21T01:46:22.775Z,31.00
2022-11-21T01:52:39.391Z,31.30
2022-11-21T01:58:52.733Z,31.30
2022-11-21T02:05:06.691Z,31.50
2022-11-21T02:11:23.997Z,31.70
2022-11-21T02:17:42.937Z,31.70
2022-11-21T02:24:00.753Z,31.60
2022-11-21T02:30:18.909Z,31.60
2022-11-21T02:36:42.312Z,31.30
2022-11-21T02:42:58.754Z,31.40
2022-11-21T02:49:12.702Z,31.30
2022-11-21T02:55:28.701Z,31.30
2022-11-21T03:01:45.340Z,31.30
2022-11-21T03:08:00.126Z,31.00
2022-11-21T03:14:08.831Z,31.10
2022-11-21T03:20:21.776Z,31.20
2022-11-21T03:26:33.646Z,31.20
2022-11-21T03:32:54.126Z,31.10
2022-11-21T03:39:07.778Z,30.90
2022-11-21T03:45:22.885Z,31.10
2022-11-21T03:51:37.341Z,31.20
2022-11-21T03:57:53.312Z,31.30
2022-11-21T04:04:03.233Z,31.20
2022-11-21T04:10:20.767Z,31.10
2022-11-21T04:16:35.164Z,31.80
2022-11-21T04:22:49.033Z,31.90
2022-11-21T04:29:02.461Z,31.50
2022-11-21T04:35:19.772Z,31.20
2022-11-21T04:41:37.863Z,31.20
2022-11-21T04:47:53.432Z,31.50
2022-11-21T04:54:09.064Z,31.80
2022-11-21T05:00:26.748Z,31.60
2022-11-21T05:06:44.890Z,30.80
2022-11-21T05:13:25.954Z,31.00
2022-11-21T05:19:41.771Z,31.10
2022-11-21T05:25:57.836Z,31.10
2022-11-21T05:32:13.945Z,31.40
2022-11-21T05:38:27.450Z,31.80
2022-11-21T05:44:46.261Z,31.70
2022-11-21T05:51:04.200Z,30.90
2022-11-21T05:57:20.346Z,31.00
2022-11-21T06:03:37.849Z,31.20
2022-11-21T06:09:51.240Z,32.00
2022-11-21T06:16:09.280Z,31.50
2022-11-21T06:22:24.335Z,31.20
2022-11-21T06:28:39.536Z,31.70
2022-11-21T06:34:53.245Z,32.40
2022-11-21T06:41:02.444Z,31.50
2022-11-21T06:47:13.624Z,31.70
2022-11-21T06:53:29.367Z,32.40
2022-11-21T06:59:45.403Z,32.80
2022-11-21T07:06:00.393Z,32.00
2022-11-21T07:12:30.195Z,32.00
2022-11-21T07:18:42.501Z,32.60
2022-11-21T07:24:53.518Z,32.30
2022-11-21T07:31:13.556Z,31.90
2022-11-21T07:37:24.935Z,32.10
2022-11-21T07:43:39.463Z,32.70
2022-11-21T07:49:56.765Z,32.70
2022-11-21T07:56:14.693Z,32.30
2022-11-21T08:02:29.782Z,31.70
2022-11-21T08:08:47.290Z,31.90
2022-11-21T08:14:59.421Z,32.40
2022-11-21T08:21:19.796Z,32.60
2022-11-21T08:27:29.772Z,31.90
2022-11-21T08:33:41.895Z,31.90
2022-11-21T08:39:54.695Z,32.30
2022-11-21T08:46:10.110Z,32.40
2022-11-21T08:52:23.865Z,32.40
2022-11-21T08:58:34.895Z,31.70
2022-11-21T09:04:51.193Z,31.90
2022-11-21T09:11:02.267Z,32.10
2022-11-21T09:17:32.132Z,32.40
2022-11-21T09:23:48.960Z,32.40
2022-11-21T09:30:07.107Z,32.40
2022-11-21T09:36:21.555Z,31.70
2022-11-21T09:42:53.188Z,31.80
2022-11-21T09:49:10.132Z,31.90
2022-11-21T09:55:30.723Z,32.40
2022-11-21T10:01:47.198Z,32.30
2022-11-21T10:08:03.306Z,32.20
2022-11-21T10:14:23.452Z,31.60
2022-11-21T10:20:55.845Z,31.90
2022-11-21T10:27:13.370Z,32.30
2022-11-21T10:33:27.964Z,32.30
2022-11-21T10:46:03.822Z,31.80
2022-11-21T10:52:20.277Z,32.20
2022-11-21T10:59:04.091Z,32.10
2022-11-21T11:12:04.400Z,31.90
2022-11-21T11:18:26.301Z,32.30
2022-11-21T11:24:40.234Z,31.80
2022-11-21T11:30:56.376Z,31.80
2022-11-21T11:37:18.913Z,32.00
2022-11-21T11:43:53.362Z,32.30
2022-11-21T11:50:20.781Z,32.30
2022-11-21T11:56:33.177Z,31.70
2022-11-21T12:02:52.963Z,31.80
2022-11-21T12:09:12.879Z,32.10
2022-11-21T12:15:41.974Z,32.20
2022-11-21T12:21:56.414Z,32.30
2022-11-21T12:28:12.442Z,32.50
2022-11-21T12:34:35.703Z,32.50
2022-11-21T12:40:59.092Z,32.60
2022-11-21T12:47:20.517Z,32.50
2022-11-21T12:53:49.636Z,32.60
2022-11-21T13:00:12.231Z,32.70
2022-11-21T13:06:32.701Z,32.00
2022-11-21T13:12:46.178Z,31.60
2022-11-21T13:19:03.449Z,32.20
2022-11-21T13:25:24.747Z,33.50
2022-11-21T13:31:44.359Z,33.60
2022-11-21T13:38:22.511Z,33.70
2022-11-21T13:44:55.868Z,32.20
2022-11-21T13:51:25.872Z,32.50
2022-11-21T13:57:44.274Z,34.00
2022-11-21T14:04:19.292Z,33.70
2022-11-21T14:10:42.920Z,32.30
2022-11-21T14:16:56.703Z,32.30
2022-11-21T14:23:11.643Z,32.90
2022-11-21T14:29:33.317Z,33.40
2022-11-21T14:35:49.148Z,34.10
2022-11-21T14:42:04.344Z,33.50
2022-11-21T14:48:26.263Z,32.40
2022-11-21T14:54:39.281Z,32.20
2022-11-21T15:01:13.416Z,32.20
2022-11-21T15:07:32.085Z,32.20
2022-11-21T15:14:12.420Z,32.70
2022-11-21T15:20:22.135Z,32.80
2022-11-21T15:26:37.891Z,32.40
2022-11-21T15:33:10.162Z,32.10
2022-11-21T15:39:22.581Z,31.90
2022-11-21T15:45:36.259Z,31.60
2022-11-21T15:52:09.535Z,31.20
2022-11-21T15:58:21.484Z,31.80
2022-11-21T16:04:36.431Z,31.80
2022-11-21T16:11:00.438Z,31.60
2022-11-21T16:17:21.120Z,31.10
2022-11-21T16:23:36.255Z,31.10
2022-11-21T16:29:51.193Z,31.00
2022-11-21T16:36:08.821Z,31.90
2022-11-21T16:42:28.193Z,31.80
2022-11-21T16:48:38.074Z,31.50
2022-11-21T16:54:53.051Z,31.30
2022-11-21T17:01:18.703Z,30.90
2022-11-21T17:07:43.142Z,30.80
2022-11-21T17:14:02.167Z,30.80
2022-11-21T17:20:20.685Z,31.10
2022-11-21T17:26:37.427Z,31.40
2022-11-21T17:32:57.654Z,31.80
2022-11-21T17:39:13.638Z,31.50
2022-11-21T17:45:28.056Z,31.50
2022-11-21T17:51:42.970Z,31.50
2022-11-21T17:58:02.527Z,31.50
2022-11-21T18:04:23.307Z,31.40
2022-11-21T18:10:43.974Z,31.40
2022-11-21T18:17:01.552Z,31.40
2022-11-21T18:23:18.881Z,31.50
2022-11-21T18:29:37.016Z,32.50
2022-11-21T18:36:00.217Z,31.90
2022-11-21T18:42:20.431Z,32.20
2022-11-21T18:49:02.391Z,31.80
2022-11-21T18:54:59.009Z,32.10
2022-11-21T19:01:18.804Z,32.00
2022-11-21T19:07:38.933Z,32.10
2022-11-21T19:13:52.607Z,32.70
2022-11-21T19:20:16.937Z,32.50
2022-11-21T19:26:37.497Z,32.20
2022-11-21T19:32:51.396Z,31.90
2022-11-21T19:39:10.115Z,32.00
2022-11-21T19:45:26.277Z,32.10
2022-11-21T19:51:50.859Z,32.70
2022-11-21T19:58:14.265Z,32.50
2022-11-21T20:04:30.517Z,31.80
2022-11-21T20:10:46.001Z,31.90
2022-11-21T20:17:00.536Z,32.00
2022-11-21T20:23:19.304Z,32.70
2022-11-21T20:29:31.116Z,32.50
2022-11-21T20:35:49.662Z,32.40
2022-11-21T20:42:04.498Z,31.90
2022-11-21T20:48:20.453Z,32.00
2022-11-21T20:54:39.456Z,32.20
2022-11-21T21:00:56.836Z,32.50
2022-11-21T21:07:12.539Z,32.80
2022-11-21T21:13:31.013Z,32.60
2022-11-21T21:19:46.404Z,32.10
2022-11-21T21:26:01.153Z,32.30
2022-11-21T21:32:12.786Z,32.50
2022-11-21T21:38:31.547Z,32.90
2022-11-21T21:44:45.582Z,33.00
2022-11-21T21:51:00.754Z,32.40
2022-11-21T21:57:23.280Z,32.50
2022-11-21T22:03:42.071Z,33.10
2022-11-21T22:09:57.617Z,33.10
2022-11-21T22:16:11.995Z,33.60
2022-11-21T22:22:28.678Z,33.90
2022-11-21T22:28:42.087Z,32.40
2022-11-21T22:34:59.840Z,32.80
2022-11-21T22:41:17.332Z,33.20
2022-11-21T22:47:33.979Z,33.40
2022-11-21T22:53:48.344Z,34.10
2022-11-21T23:00:06.430Z,34.00
2022-11-21T23:06:23.110Z,33.10
2022-11-21T23:12:34.166Z,33.50
2022-11-21T23:18:53.785Z,33.90
2022-11-21T23:25:10.523Z,34.20
2022-11-21T23:31:24.372Z,35.20
2022-11-21T23:37:37.359Z,34.40
2022-11-21T23:43:51.462Z,34.70
2022-11-21T23:50:05.045Z,35.20
2022-11-21T23:56:28.198Z,36.50
